Time;durP1;ratioP1;P1;durP2;ratioP2;P2;SDS_P1;SDS_P2;PMS_P1;PMS_P2;Temp;Humidity;BMP_temperature;BMP_pressure;BME280_temperature;BME280_humidity;BME280_pressure;Samples;Min_cycle;Max_cycle;Signal;HPM_P1;HPM_P2
2021/06/03 00:00:16;;;;;;;2.28;2.08;;;;;;;16.80;70.34;100803.31;4980202;28;102815;-62
2021/06/03 00:02:43;;;;;;;2.35;2.15;;;;;;;16.79;70.41;100804.44;4997038;28;104224;-63
2021/06/03 00:05:10;;;;;;;1.98;1.88;;;;;;;16.80;70.49;100811.53;5008141;28;102402;-62
2021/06/03 00:07:36;;;;;;;2.47;1.83;;;;;;;16.79;70.85;100804.44;4996038;28;102351;-62
2021/06/03 00:10:08;;;;;;;2.20;1.98;;;;;;;16.80;70.80;100806.06;5001668;28;102325;-62
2021/06/03 00:12:35;;;;;;;2.40;2.20;;;;;;;16.80;70.50;100808.81;5003549;28;103834;-62
2021/06/03 00:15:04;;;;;;;2.15;2.05;;;;;;;16.80;70.25;100803.31;5003918;28;102072;-62
2021/06/03 00:17:30;;;;;;;2.53;2.33;;;;;;;16.79;70.58;100802.50;5005823;28;102287;-63
2021/06/03 00:19:57;;;;;;;2.25;2.05;;;;;;;16.79;70.31;100798.94;5003718;28;102113;-62
2021/06/03 00:22:24;;;;;;;3.22;2.30;;;;;;;16.79;71.13;100804.44;4994376;28;103942;-62
2021/06/03 00:24:51;;;;;;;2.40;2.20;;;;;;;16.78;71.16;100803.63;4988833;28;102372;-62
2021/06/03 00:27:21;;;;;;;2.53;2.33;;;;;;;16.79;70.83;100812.69;4993932;28;102413;-62
2021/06/03 00:29:48;;;;;;;2.20;2.08;;;;;;;16.79;70.85;100815.44;5007509;28;102321;-62
2021/06/03 00:32:15;;;;;;;2.15;2.05;;;;;;;16.78;71.13;100819.31;4998465;28;103762;-62
2021/06/03 00:34:42;;;;;;;2.42;2.22;;;;;;;16.78;71.08;100806.38;5001884;28;102542;-63
2021/06/03 00:37:09;;;;;;;2.65;2.45;;;;;;;16.78;70.72;100803.63;4999348;28;102056;-62
2021/06/03 00:39:35;;;;;;;2.58;2.38;;;;;;;16.78;71.14;100814.63;4996304;28;103314;-62
2021/06/03 00:42:04;;;;;;;3.50;3.20;;;;;;;16.78;70.55;100809.13;4982787;28;104044;-62
2021/06/03 00:44:33;;;;;;;3.08;2.88;;;;;;;16.78;70.83;100809.13;4980335;28;102522;-62
2021/06/03 00:46:59;;;;;;;2.78;2.58;;;;;;;16.78;70.14;100814.63;4983449;28;102581;-62
2021/06/03 00:49:29;;;;;;;2.60;2.40;;;;;;;16.78;71.06;100813.81;4999381;28;102380;-62
2021/06/03 00:51:56;;;;;;;2.65;2.45;;;;;;;16.77;70.75;100812.19;4992352;28;104042;-63
2021/06/03 00:54:23;;;;;;;2.78;2.58;;;;;;;16.76;70.97;100816.84;4999276;28;102391;-62
2021/06/03 00:56:50;;;;;;;2.40;2.20;;;;;;;16.76;70.74;100819.59;4999601;28;102708;-62
2021/06/03 00:59:17;;;;;;;2.78;2.58;;;;;;;16.76;70.93;100816.84;4997329;28;102190;-62
2021/06/03 01:01:45;;;;;;;2.35;2.20;;;;;;;16.76;71.11;100816.03;4999342;28;103916;-62
2021/06/03 01:04:16;;;;;;;3.20;2.90;;;;;;;16.76;70.52;100821.53;4981637;28;102636;-62
2021/06/03 01:06:43;;;;;;;3.00;2.70;;;;;;;16.75;71.15;100825.41;4996289;28;102641;-62
2021/06/03 01:09:15;;;;;;;3.28;2.45;;;;;;;16.75;70.59;100825.41;4994169;28;102365;-62
2021/06/03 01:11:53;;;;;;;2.90;2.70;;;;;;;16.76;70.84;100832.53;4999576;28;103892;-62
2021/06/03 01:14:24;;;;;;;2.83;2.63;;;;;;;16.75;71.17;100828.16;4986549;28;102685;-62
2021/06/03 01:17:00;;;;;;;4.05;3.35;;;;;;;16.75;70.68;100826.22;5001702;28;102485;-63
2021/06/03 01:19:33;;;;;;;3.45;3.15;;;;;;;16.75;71.11;100825.41;5005509;28;102584;-62
2021/06/03 01:22:06;;;;;;;3.50;3.20;;;;;;;16.75;70.87;100836.41;4996657;28;102928;-62
2021/06/03 01:24:36;;;;;;;3.45;3.22;;;;;;;16.74;70.45;100835.59;5004471;28;102465;-62
2021/06/03 01:27:07;;;;;;;3.50;3.20;;;;;;;16.74;70.96;100834.78;5008289;28;103284;-62
2021/06/03 01:29:42;;;;;;;3.85;3.55;;;;;;;16.75;70.92;100844.66;4998956;28;102936;-62
2021/06/03 01:32:10;;;;;;;3.47;3.17;;;;;;;16.75;70.92;100847.41;5000080;28;103865;-62
2021/06/03 01:34:38;;;;;;;4.32;3.20;;;;;;;16.75;70.94;100841.91;4996246;28;102534;-62
2021/06/03 01:37:06;;;;;;;3.92;3.10;;;;;;;16.75;71.03;100847.41;4998641;28;102738;-62
2021/06/03 01:39:35;;;;;;;3.60;3.30;;;;;;;16.74;70.53;100840.28;4998755;28;102533;-62
2021/06/03 01:42:03;;;;;;;3.25;2.88;;;;;;;16.74;70.69;100845.78;4994091;28;103906;-62
2021/06/03 01:44:33;;;;;;;4.22;3.40;;;;;;;16.74;71.14;100840.28;4995223;28;102523;-62
2021/06/03 01:47:03;;;;;;;4.65;3.30;;;;;;;16.74;70.77;100845.78;4985929;28;102751;-62
2021/06/03 01:49:31;;;;;;;3.70;3.40;;;;;;;16.74;70.69;100843.03;5001497;28;102235;-62
2021/06/03 01:52:00;;;;;;;3.70;3.35;;;;;;;16.74;71.00;100845.78;5002405;28;103964;-62
2021/06/03 01:54:29;;;;;;;2.95;2.75;;;;;;;16.74;70.61;100856.78;4995411;28;102115;-62
2021/06/03 01:56:58;;;;;;;3.53;3.23;;;;;;;16.73;70.46;100847.69;4999833;28;104064;-62
2021/06/03 01:59:25;;;;;;;3.72;3.42;;;;;;;16.75;70.56;100858.41;5000643;28;103150;-62
2021/06/03 02:01:52;;;;;;;3.83;3.50;;;;;;;16.74;70.80;100845.78;5000698;28;103925;-62
2021/06/03 02:04:19;;;;;;;5.20;3.50;;;;;;;16.75;70.48;100856.47;5006878;28;102117;-63
2021/06/03 02:06:52;;;;;;;3.92;3.63;;;;;;;16.75;70.47;100864.69;4991186;28;102588;-62
2021/06/03 02:09:19;;;;;;;3.47;3.17;;;;;;;16.75;70.73;100856.47;4999369;28;102399;-62
2021/06/03 02:11:47;;;;;;;4.18;3.70;;;;;;;16.75;70.25;100855.66;5006395;28;103931;-62
2021/06/03 02:14:20;;;;;;;3.78;3.47;;;;;;;16.74;70.42;100854.03;5006971;28;102490;-62
2021/06/03 02:16:50;;;;;;;5.38;3.47;;;;;;;16.74;70.44;100845.78;5003523;28;102745;-62
2021/06/03 02:19:22;;;;;;;3.55;3.25;;;;;;;16.73;70.67;100850.44;5002153;28;102279;-62
2021/06/03 02:21:50;;;;;;;3.63;3.33;;;;;;;16.73;70.81;100855.94;5001270;28;103841;-62
2021/06/03 02:24:26;;;;;;;3.83;3.53;;;;;;;16.73;70.96;100855.09;5003659;28;103283;-62
2021/06/03 02:26:53;;;;;;;3.85;3.30;;;;;;;16.74;70.59;100859.53;4999373;28;102166;-63
2021/06/03 02:29:22;;;;;;;3.42;3.20;;;;;;;16.73;71.06;100860.59;4991097;28;102361;-62
2021/06/03 02:31:50;;;;;;;3.65;3.28;;;;;;;16.74;70.61;100862.28;5002081;28;103887;-62
2021/06/03 02:34:17;;;;;;;3.70;3.40;;;;;;;16.74;70.53;100862.28;5007678;28;102593;-62
2021/06/03 02:36:44;;;;;;;4.10;3.70;;;;;;;16.73;70.83;100871.59;4991877;28;102618;-62
2021/06/03 02:39:10;;;;;;;3.92;3.60;;;;;;;16.74;71.02;100865.03;4989093;28;102505;-62
2021/06/03 02:41:37;;;;;;;5.20;3.55;;;;;;;16.75;70.88;100866.66;4996723;28;104861;-62
2021/06/03 02:44:05;;;;;;;4.07;3.65;;;;;;;16.74;70.94;100865.03;4997667;28;102442;-62
2021/06/03 02:46:33;;;;;;;4.40;4.10;;;;;;;16.74;70.79;100862.28;4995957;28;102342;-62
2021/06/03 02:48:59;;;;;;;4.00;3.60;;;;;;;16.74;70.71;100870.53;4995026;28;102181;-62
2021/06/03 02:51:26;;;;;;;4.00;3.60;;;;;;;16.73;71.16;100871.59;4996876;28;103935;-62
2021/06/03 02:53:52;;;;;;;4.15;3.75;;;;;;;16.73;70.60;100872.44;5000883;28;102509;-63
2021/06/03 02:56:19;;;;;;;4.25;3.95;;;;;;;16.73;70.75;100871.59;4999303;28;102815;-62
2021/06/03 02:58:46;;;;;;;3.67;3.38;;;;;;;16.73;70.91;100883.41;5001527;28;102780;-62
2021/06/03 03:01:13;;;;;;;3.75;3.45;;;;;;;16.73;70.84;100871.59;4958338;28;103428;-62
2021/06/03 03:03:41;;;;;;;4.03;3.67;;;;;;;16.73;70.39;100883.41;4991529;28;102345;-62
2021/06/03 03:06:08;;;;;;;4.35;3.90;;;;;;;16.73;70.48;100871.59;4996685;28;102530;-62
2021/06/03 03:08:34;;;;;;;4.32;3.92;;;;;;;16.73;71.18;100883.41;5001071;28;102513;-63
2021/06/03 03:11:02;;;;;;;3.80;3.50;;;;;;;16.74;71.01;100878.75;4958741;28;103971;-62
2021/06/03 03:13:31;;;;;;;3.70;3.17;;;;;;;16.73;70.73;100885.34;5000297;28;102332;-62
2021/06/03 03:15:57;;;;;;;3.70;3.40;;;;;;;16.73;70.69;100882.59;5002012;28;102162;-62
2021/06/03 03:18:24;;;;;;;5.32;3.50;;;;;;;16.72;70.83;100876.28;4995701;28;102359;-62
2021/06/03 03:20:53;;;;;;;3.90;3.33;;;;;;;16.72;70.94;100881.78;4998026;28;103972;-62
2021/06/03 03:23:20;;;;;;;3.80;3.33;;;;;;;16.71;70.55;100873.84;4997332;28;102732;-62
2021/06/03 03:25:47;;;;;;;3.95;3.47;;;;;;;16.71;71.08;100874.66;5002661;28;102587;-63
2021/06/03 03:28:14;;;;;;;3.22;2.95;;;;;;;16.71;70.92;100880.16;5002824;28;102356;-62
2021/06/03 03:30:42;;;;;;;4.93;3.35;;;;;;;16.72;70.50;100884.53;4991504;28;103889;-63
2021/06/03 03:33:10;;;;;;;4.00;3.55;;;;;;;16.71;70.76;100884.84;4995238;28;102674;-62
2021/06/03 03:35:36;;;;;;;4.28;3.88;;;;;;;16.71;70.53;100882.09;4980435;28;102653;-62
2021/06/03 03:38:05;;;;;;;5.10;3.80;;;;;;;16.72;70.51;100886.47;5004012;28;102661;-62
2021/06/03 03:40:32;;;;;;;3.90;3.53;;;;;;;16.71;70.58;100884.84;4992334;28;103983;-62
2021/06/03 03:42:58;;;;;;;3.70;3.38;;;;;;;16.72;70.53;100892.78;4991873;28;102841;-62
2021/06/03 03:45:27;;;;;;;3.95;3.35;;;;;;;16.71;70.38;100895.84;5005832;28;102256;-63
2021/06/03 03:47:54;;;;;;;5.00;3.30;;;;;;;16.72;70.69;100894.72;4995924;28;102435;-63
2021/06/03 03:50:21;;;;;;;3.70;3.30;;;;;;;16.71;70.88;100893.91;5002391;28;103634;-62
2021/06/03 03:52:49;;;;;;;4.18;3.78;;;;;;;16.72;70.51;100902.94;5002106;28;102697;-62
2021/06/03 03:55:18;;;;;;;3.63;3.40;;;;;;;16.71;70.70;100899.41;5000686;28;102246;-62
2021/06/03 03:57:47;;;;;;;4.00;3.60;;;;;;;16.71;70.33;100899.41;4998878;28;102379;-62
2021/06/03 04:00:17;;;;;;;3.50;3.20;;;;;;;16.71;70.62;100906.81;5004670;28;103853;-62
2021/06/03 04:02:44;;;;;;;3.92;3.63;;;;;;;16.70;70.29;100907.97;5007290;28;102074;-62
2021/06/03 04:05:12;;;;;;;4.50;3.40;;;;;;;16.71;70.28;100912.31;4994916;28;102469;-62
2021/06/03 04:07:39;;;;;;;3.78;3.15;;;;;;;16.70;70.81;100922.50;5004946;28;102536;-63
2021/06/03 04:10:08;;;;;;;4.05;3.45;;;;;;;16.70;70.70;100917.00;4987784;28;104109;-62
2021/06/03 04:12:36;;;;;;;4.28;2.90;;;;;;;16.71;70.67;100923.31;5005360;28;102306;-62
2021/06/03 04:15:04;;;;;;;5.77;3.40;;;;;;;16.70;70.84;100922.50;4996835;28;102708;-62
2021/06/03 04:17:31;;;;;;;3.10;2.90;;;;;;;16.70;70.42;100916.19;4990387;28;102552;-62
2021/06/03 04:19:57;;;;;;;3.78;3.35;;;;;;;16.70;70.39;100922.50;4999561;28;103739;-63
2021/06/03 04:22:25;;;;;;;4.72;3.05;;;;;;;16.69;70.38;100920.84;4993777;28;102630;-62
2021/06/03 04:24:52;;;;;;;3.92;3.42;;;;;;;16.71;70.80;100923.31;5007565;28;102036;-62
2021/06/03 04:27:19;;;;;;;4.60;3.50;;;;;;;16.70;70.73;100935.44;5002472;28;102356;-62
2021/06/03 04:29:47;;;;;;;3.65;3.28;;;;;;;16.70;70.26;100924.44;4985926;28;104042;-62
2021/06/03 04:32:14;;;;;;;4.13;3.38;;;;;;;16.69;70.38;100929.09;5005825;28;102394;-63
2021/06/03 04:34:40;;;;;;;4.10;2.85;;;;;;;16.69;70.73;100931.84;4999965;28;102305;-62
2021/06/03 04:37:07;;;;;;;3.45;3.13;;;;;;;16.71;70.26;100934.31;4999757;28;102794;-62
2021/06/03 04:39:33;;;;;;;3.50;3.20;;;;;;;16.71;70.37;100934.31;4998821;28;104063;-62
2021/06/03 04:42:00;;;;;;;3.55;3.25;;;;;;;16.70;70.30;100927.19;4991106;28;102978;-62
2021/06/03 04:44:27;;;;;;;3.42;3.13;;;;;;;16.71;70.46;100937.06;5003783;28;102161;-63
2021/06/03 04:46:55;;;;;;;4.38;3.00;;;;;;;16.71;70.61;100935.13;4999473;28;102216;-63
2021/06/03 04:49:21;;;;;;;3.35;3.05;;;;;;;16.71;70.50;100937.88;4982302;28;103882;-62
2021/06/03 04:51:47;;;;;;;3.47;3.17;;;;;;;16.72;70.58;100935.94;4991033;28;102666;-62
2021/06/03 04:54:14;;;;;;;3.10;2.80;;;;;;;16.72;70.42;100941.44;4996310;28;102230;-62
2021/06/03 04:56:41;;;;;;;3.40;3.10;;;;;;;16.73;70.50;100943.03;4997407;28;102725;-62
2021/06/03 04:59:08;;;;;;;5.07;3.28;;;;;;;16.73;70.10;100943.03;4980301;28;103514;-63
2021/06/03 05:01:34;;;;;;;3.38;3.00;;;;;;;16.74;70.39;100955.72;5001243;28;102506;-62
2021/06/03 05:04:03;;;;;;;3.80;3.38;;;;;;;16.73;70.39;100951.28;4993456;28;102682;-63
2021/06/03 05:06:29;;;;;;;3.90;3.17;;;;;;;16.73;70.45;100954.88;4998754;28;102602;-62
2021/06/03 05:08:56;;;;;;;3.30;3.00;;;;;;;16.73;70.05;100965.88;5000307;28;104209;-63
2021/06/03 05:11:22;;;;;;;3.88;3.25;;;;;;;16.73;70.51;100963.13;4989158;28;102299;-62
2021/06/03 05:13:49;;;;;;;3.35;3.05;;;;;;;16.73;70.19;100960.38;4998462;28;102133;-62
2021/06/03 05:16:15;;;;;;;4.25;3.20;;;;;;;16.75;70.05;100962.84;5004573;28;102526;-62
2021/06/03 05:18:42;;;;;;;3.47;3.10;;;;;;;16.76;70.34;100961.69;4986661;28;103926;-65
2021/06/03 05:21:11;;;;;;;3.20;3.00;;;;;;;16.76;70.39;100970.75;5001878;28;102666;-63
2021/06/03 05:23:37;;;;;;;3.33;2.95;;;;;;;16.77;70.39;100963.34;5003045;28;102110;-62
2021/06/03 05:26:04;;;;;;;4.10;3.47;;;;;;;16.77;70.11;100960.59;5004262;28;102560;-63
2021/06/03 05:28:31;;;;;;;3.28;3.08;;;;;;;16.77;70.04;100968.84;4994858;28;104905;-62
2021/06/03 05:30:57;;;;;;;3.08;2.78;;;;;;;16.77;69.94;100963.34;4989097;28;102491;-63
2021/06/03 05:33:24;;;;;;;5.82;3.90;;;;;;;16.77;69.78;100966.09;5002968;28;102524;-62
2021/06/03 05:35:50;;;;;;;3.55;3.22;;;;;;;16.77;69.98;100966.09;5010163;28;102111;-62
2021/06/03 05:38:18;;;;;;;5.03;3.28;;;;;;;16.77;70.02;100966.09;4996848;28;104069;-62
2021/06/03 05:40:45;;;;;;;5.00;3.03;;;;;;;16.76;70.18;100964.44;5001028;28;102598;-62
2021/06/03 05:43:12;;;;;;;3.63;3.05;;;;;;;16.77;69.97;100966.91;4992707;28;102580;-62
2021/06/03 05:45:38;;;;;;;3.30;3.00;;;;;;;16.77;70.26;100971.59;4999545;28;102645;-62
2021/06/03 05:48:05;;;;;;;3.67;3.03;;;;;;;16.76;70.22;100964.44;5003716;28;103833;-62
2021/06/03 05:50:32;;;;;;;3.08;2.85;;;;;;;16.77;69.82;100971.59;4999070;28;102550;-62
2021/06/03 05:52:59;;;;;;;5.38;3.10;;;;;;;16.76;69.91;100967.19;4993559;28;102228;-63
2021/06/03 05:55:27;;;;;;;3.47;3.17;;;;;;;16.76;70.00;100970.75;4993480;28;102551;-62
2021/06/03 05:57:54;;;;;;;2.97;2.77;;;;;;;16.77;70.41;100971.59;4994269;28;103781;-62
2021/06/03 06:00:23;;;;;;;4.53;3.03;;;;;;;16.75;70.31;100974.63;4995261;28;102320;-62
2021/06/03 06:08:07;;;;;;;3.65;3.00;;;;;;;16.75;69.94;100974.63;4985687;28;104343;-62
2021/06/03 06:10:37;;;;;;;3.50;3.20;;;;;;;16.76;70.07;100978.19;4996043;28;102922;-62
2021/06/03 06:13:04;;;;;;;3.72;3.42;;;;;;;16.76;70.09;100972.69;4993180;28;102565;-62
2021/06/03 06:15:33;;;;;;;3.40;2.80;;;;;;;16.75;69.78;100969.13;4937600;28;103994;-62
2021/06/03 06:18:00;;;;;;;4.30;3.15;;;;;;;16.76;69.84;100986.44;4988154;28;103946;-62
2021/06/03 06:20:28;;;;;;;3.30;3.00;;;;;;;16.75;70.34;100984.81;4994118;28;102071;-62
2021/06/03 06:22:56;;;;;;;3.30;3.00;;;;;;;16.76;70.25;100980.94;4987644;28;102643;-64
2021/06/03 06:25:25;;;;;;;4.22;3.00;;;;;;;16.75;69.69;100980.13;4993201;28;103407;-62
2021/06/03 06:27:53;;;;;;;3.58;3.00;;;;;;;16.76;70.19;100980.94;4994188;28;104161;-63
2021/06/03 06:30:21;;;;;;;3.67;3.00;;;;;;;16.75;70.21;100980.13;4996930;28;103373;-62
2021/06/03 06:32:47;;;;;;;4.97;2.97;;;;;;;16.76;69.92;100969.94;5001358;28;102499;-63
2021/06/03 06:35:15;;;;;;;4.85;3.10;;;;;;;16.75;70.08;100979.31;4981310;28;103036;-63
2021/06/03 06:37:42;;;;;;;5.82;3.40;;;;;;;16.76;70.02;100986.44;4997430;28;103698;-63
2021/06/03 06:40:09;;;;;;;3.33;3.03;;;;;;;16.75;70.13;100982.06;4998804;28;102395;-62
2021/06/03 06:42:36;;;;;;;4.30;3.47;;;;;;;16.75;69.79;100990.31;4988299;28;102515;-62
2021/06/03 06:45:06;;;;;;;4.45;3.22;;;;;;;16.75;69.78;100991.13;5002557;28;102814;-62
2021/06/03 06:47:35;;;;;;;3.75;3.35;;;;;;;16.75;69.71;100987.56;4978205;28;103668;-62
2021/06/03 06:50:01;;;;;;;;;;;;;;;16.74;69.55;100986.75;4996927;28;102145;-62
2021/06/03 06:52:28;;;;;;;4.45;3.13;;;;;;;16.75;70.17;100995.81;4988338;28;102891;-63
2021/06/03 06:54:54;;;;;;;3.63;3.00;;;;;;;16.74;69.63;100994.19;4995958;28;102243;-62
2021/06/03 06:57:21;;;;;;;4.32;3.17;;;;;;;16.74;69.88;100995.00;4986935;28;103945;-63
2021/06/03 06:59:48;;;;;;;3.58;3.17;;;;;;;16.73;69.91;100998.00;4996802;28;104522;-62
2021/06/03 07:02:18;;;;;;;7.78;3.83;;;;;;;16.74;69.50;100994.19;4995842;28;102473;-62
2021/06/03 07:04:44;;;;;;;4.80;3.47;;;;;;;16.73;69.82;100992.50;4987577;28;102495;-62
2021/06/03 07:07:10;;;;;;;4.97;3.25;;;;;;;16.74;69.54;101000.50;4988705;28;104062;-62
2021/06/03 07:09:37;;;;;;;3.85;3.08;;;;;;;16.74;69.93;100988.69;4996564;28;105077;-62
2021/06/03 07:12:05;;;;;;;3.45;3.15;;;;;;;16.74;69.38;100994.19;4996528;28;103128;-62
2021/06/03 07:14:32;;;;;;;3.83;3.53;;;;;;;16.73;69.88;101000.75;5002310;28;102464;-62
2021/06/03 07:16:59;;;;;;;3.47;3.17;;;;;;;16.73;69.37;100995.25;4995166;28;103903;-62
2021/06/03 07:19:27;;;;;;;3.78;3.45;;;;;;;16.73;69.89;100993.34;5000517;28;103076;-62
2021/06/03 07:21:53;;;;;;;4.53;3.35;;;;;;;16.73;69.27;100998.00;4996040;28;102517;-62
2021/06/03 07:24:20;;;;;;;4.22;3.60;;;;;;;16.74;69.63;101002.44;4998884;28;102824;-62
2021/06/03 07:26:47;;;;;;;5.10;3.50;;;;;;;16.72;69.12;101008.19;4995531;28;103938;-62
2021/06/03 07:29:13;;;;;;;4.55;3.10;;;;;;;16.73;69.60;101006.25;4998045;28;102526;-62
2021/06/03 07:31:40;;;;;;;3.50;3.20;;;;;;;16.72;69.67;101008.19;5000306;28;102620;-62
2021/06/03 07:34:07;;;;;;;3.67;3.38;;;;;;;16.73;69.59;100998.84;4995414;28;102280;-62
2021/06/03 07:36:35;;;;;;;3.40;3.10;;;;;;;16.72;69.04;100997.19;4987875;28;104040;-62
2021/06/03 07:39:06;;;;;;;4.47;3.40;;;;;;;16.73;69.62;100998.00;4975015;28;102457;-62
2021/06/03 07:41:35;;;;;;;4.68;3.33;;;;;;;16.73;69.28;100987.00;4994141;28;102588;-62
2021/06/03 07:44:01;;;;;;;3.40;3.10;;;;;;;16.73;69.33;100998.00;4997041;28;102248;-62
2021/06/03 07:46:28;;;;;;;3.58;3.25;;;;;;;16.74;69.47;100999.69;4992532;28;103901;-62
2021/06/03 07:48:55;;;;;;;4.63;3.35;;;;;;;16.73;69.66;101007.09;4989849;28;102296;-62
2021/06/03 07:51:22;;;;;;;3.40;2.88;;;;;;;16.74;69.37;101010.69;4994508;28;102177;-62
2021/06/03 07:53:51;;;;;;;4.72;3.45;;;;;;;16.74;69.17;101016.19;4996876;28;102174;-62
2021/06/03 07:56:18;;;;;;;3.35;3.05;;;;;;;16.73;69.23;101003.50;4982920;28;105298;-62
2021/06/03 07:58:45;;;;;;;3.67;3.30;;;;;;;16.73;69.48;101012.59;4995862;28;102438;-62
2021/06/03 08:01:11;;;;;;;4.85;3.53;;;;;;;16.73;69.33;101009.00;4998036;28;102406;-62
2021/06/03 08:03:38;;;;;;;4.35;3.22;;;;;;;16.74;69.12;101013.44;4993423;28;102391;-63
2021/06/03 08:06:04;;;;;;;3.60;3.30;;;;;;;16.73;69.21;101020.84;4990355;28;103887;-62
2021/06/03 08:08:36;;;;;;;3.53;3.22;;;;;;;16.73;69.34;101020.84;4998647;28;102691;-62
2021/06/03 08:11:04;;;;;;;3.83;3.35;;;;;;;16.73;69.11;101015.34;4985995;28;102737;-62
2021/06/03 08:13:31;;;;;;;4.05;3.65;;;;;;;16.73;69.44;101015.34;5002153;28;102629;-62
2021/06/03 08:15:58;;;;;;;4.32;3.45;;;;;;;16.74;68.88;101021.69;4995374;28;103871;-62
2021/06/03 08:18:27;;;;;;;3.92;3.53;;;;;;;16.74;69.22;101027.97;4997073;28;106228;-62
2021/06/03 08:20:57;;;;;;;3.33;2.88;;;;;;;16.75;68.76;101020.53;4996943;28;102597;-62
2021/06/03 08:23:26;;;;;;;5.32;3.67;;;;;;;16.75;69.12;101024.09;4997715;28;102453;-62
2021/06/03 08:25:55;;;;;;;4.07;3.47;;;;;;;16.75;68.88;101024.09;4994752;28;103997;-62
2021/06/03 08:28:23;;;;;;;;;;;;;;;16.76;68.65;101025.72;4994903;28;102388;-62
2021/06/03 08:30:51;;;;;;;3.70;3.10;;;;;;;16.77;69.22;101026.56;4995638;28;104986;-62
2021/06/03 08:33:19;;;;;;;3.50;3.20;;;;;;;16.78;69.07;101028.19;4999581;28;102496;-62
2021/06/03 08:35:46;;;;;;;3.85;3.47;;;;;;;16.77;69.57;101037.56;4997534;28;105124;-62
2021/06/03 08:38:13;;;;;;;4.43;3.83;;;;;;;16.78;68.71;101033.69;4991204;28;103549;-62
2021/06/03 08:40:42;;;;;;;4.05;3.58;;;;;;;16.77;68.83;101023.81;4998512;28;102776;-62
2021/06/03 08:43:10;;;;;;;3.88;3.47;;;;;;;16.78;68.62;101029.00;4999621;28;102826;-62
2021/06/03 08:45:41;;;;;;;6.47;3.33;;;;;;;16.78;68.50;101022.69;4999834;28;104093;-62
2021/06/03 08:48:08;;;;;;;5.60;3.58;;;;;;;16.79;68.67;101024.31;4999999;28;102076;-62
2021/06/03 08:50:37;;;;;;;4.22;2.97;;;;;;;16.79;67.88;101021.56;4989936;28;102647;-62
2021/06/03 08:53:05;;;;;;;3.55;3.25;;;;;;;16.79;68.04;101018.81;4991640;28;106089;-63
2021/06/03 08:58:20;;;;;;;6.15;3.42;;;;;;;16.78;67.64;101018.00;4992812;28;102676;-62
2021/06/03 09:00:49;;;;;;;3.88;3.03;;;;;;;16.80;67.91;101020.44;4996460;28;102605;-62
2021/06/03 09:03:17;;;;;;;5.43;3.67;;;;;;;16.80;67.90;101023.19;4987322;28;102737;-62
2021/06/03 09:05:46;;;;;;;5.93;3.47;;;;;;;16.80;68.50;101020.44;4990773;28;103826;-62
2021/06/03 09:08:18;;;;;;;3.08;2.78;;;;;;;16.80;67.72;101023.19;4960024;28;102417;-62
2021/06/03 09:10:47;;;;;;;4.15;3.42;;;;;;;16.82;67.68;101018.19;4991899;28;102435;-62
2021/06/03 09:13:15;;;;;;;;;;;;;;;16.82;67.82;101018.19;5007580;28;102468;-62
2021/06/03 09:15:44;;;;;;;;;;;;;;;16.81;67.59;101022.91;5003700;28;104344;-62
2021/06/03 09:18:16;;;;;;;3.40;3.10;;;;;;;16.83;67.59;101008.84;4991817;28;102683;-62
2021/06/03 09:20:47;;;;;;;4.68;3.60;;;;;;;16.83;67.87;101013.53;4995614;28;102567;-62
2021/06/03 09:23:24;;;;;;;;;;;;;;;16.83;67.64;101008.84;5000601;28;102507;-62
2021/06/03 09:25:52;;;;;;;3.80;3.33;;;;;;;16.83;67.75;101003.34;4992195;28;104037;-62
2021/06/03 09:28:23;;;;;;;4.60;3.67;;;;;;;16.82;68.04;101007.22;4999169;28;102286;-62
2021/06/03 09:30:52;;;;;;;4.85;3.75;;;;;;;16.83;68.02;101008.84;4999898;28;102240;-62
2021/06/03 09:33:34;;;;;;;3.63;3.33;;;;;;;16.83;68.27;101005.28;4983637;28;102261;-62
2021/06/03 09:36:02;;;;;;;4.78;3.40;;;;;;;16.84;68.25;100998.66;4991292;28;104136;-62
2021/06/03 09:38:29;;;;;;;4.60;3.60;;;;;;;16.83;68.61;100997.84;5007710;28;102086;-62
2021/06/03 09:40:56;;;;;;;3.55;3.25;;;;;;;16.84;68.64;100993.16;4984043;28;101967;-63
2021/06/03 09:43:23;;;;;;;3.95;3.58;;;;;;;16.83;68.73;101000.59;4987507;28;103094;-62
2021/06/03 09:45:56;;;;;;;4.10;3.70;;;;;;;16.84;68.94;101002.22;4970642;28;103884;-62
2021/06/03 09:48:41;;;;;;;4.28;3.45;;;;;;;16.82;68.78;100990.72;5001325;28;102434;-62
2021/06/03 09:51:31;;;;;;;3.65;3.35;;;;;;;16.84;68.48;100994.00;5000759;28;102620;-62
2021/06/03 09:54:00;;;;;;;4.28;3.30;;;;;;;16.85;69.07;100994.78;5003073;28;102317;-62
2021/06/03 09:56:29;;;;;;;4.40;3.80;;;;;;;16.84;69.01;100994.00;5008070;28;104309;-62
2021/06/03 09:58:57;;;;;;;3.42;3.10;;;;;;;16.86;68.69;100993.66;4992405;28;102342;-62
2021/06/03 10:01:50;;;;;;;3.30;3.00;;;;;;;16.84;68.62;100993.16;4995101;28;102583;-62
2021/06/03 10:04:23;;;;;;;5.78;3.50;;;;;;;16.85;69.18;101000.28;4993723;28;102257;-62
2021/06/03 10:06:54;;;;;;;3.88;3.58;;;;;;;16.85;68.82;101006.59;4992270;28;103964;-62
2021/06/03 10:09:33;;;;;;;;;;;;;;;16.86;68.70;101007.41;4991333;28;102391;-62
2021/06/03 10:11:59;;;;;;;3.58;3.28;;;;;;;16.85;67.53;100998.34;4975552;28;102593;-62
2021/06/03 10:14:27;;;;;;;5.80;3.23;;;;;;;16.85;66.77;101006.59;5000173;28;102161;-62
2021/06/03 10:16:55;;;;;;;3.13;2.83;;;;;;;16.87;66.46;101009.84;5001488;28;103873;-62
2021/06/03 10:19:29;;;;;;;3.35;3.00;;;;;;;16.87;66.65;101006.28;5000788;28;102160;-63
2021/06/03 10:22:13;;;;;;;3.33;3.00;;;;;;;16.88;66.77;101007.91;4980415;28;102157;-62
2021/06/03 10:25:07;;;;;;;4.18;3.50;;;;;;;16.88;66.30;101008.75;4997482;28;102588;-62
2021/06/03 10:27:37;;;;;;;4.88;3.85;;;;;;;16.88;66.84;101017.00;4972229;28;104682;-62
2021/06/03 10:30:08;;;;;;;3.93;3.03;;;;;;;16.88;65.89;101011.50;4998718;28;102776;-63
2021/06/03 10:32:38;;;;;;;3.92;3.00;;;;;;;16.90;66.57;101016.66;4992787;28;102317;-62
2021/06/03 10:35:10;;;;;;;3.30;2.97;;;;;;;16.89;66.25;101018.63;4992624;28;102160;-63
2021/06/03 10:37:38;;;;;;;3.33;3.03;;;;;;;16.90;66.45;101022.16;4989376;28;104582;-62
2021/06/03 10:40:08;;;;;;;3.33;3.03;;;;;;;16.91;66.02;101021.84;5001722;28;102327;-62
2021/06/03 10:42:34;;;;;;;2.92;2.72;;;;;;;16.91;66.14;101027.34;5003696;28;102419;-62
2021/06/03 10:45:04;;;;;;;4.78;3.33;;;;;;;16.92;64.93;101029.00;4990999;28;102189;-62
2021/06/03 10:47:32;;;;;;;2.90;2.70;;;;;;;16.93;65.38;101027.06;4995391;28;104039;-62
2021/06/03 10:50:14;;;;;;;5.32;3.33;;;;;;;16.93;64.66;101025.13;4980162;28;102360;-63
2021/06/03 10:52:41;;;;;;;5.57;2.88;;;;;;;16.94;64.02;101037.75;4973322;28;102825;-62
2021/06/03 10:55:08;;;;;;;3.45;3.00;;;;;;;16.92;64.32;101034.50;4995332;28;102478;-62
2021/06/03 10:57:51;;;;;;;4.60;3.53;;;;;;;16.92;63.82;101034.50;4988188;28;103919;-62
2021/06/03 11:00:28;;;;;;;3.30;3.00;;;;;;;16.93;64.43;101029.81;4999439;28;103879;-62
2021/06/03 11:02:56;;;;;;;4.78;3.10;;;;;;;16.92;64.40;101034.50;4982765;28;102885;-63
2021/06/03 11:05:27;;;;;;;3.58;3.15;;;;;;;16.93;64.35;101043.56;4991699;28;103481;-62
2021/06/03 11:07:53;;;;;;;7.03;3.28;;;;;;;16.91;64.65;101032.84;4988938;28;103314;-62
2021/06/03 11:10:30;;;;;;;3.97;2.80;;;;;;;16.92;63.90;101036.44;4992158;28;103538;-62
2021/06/03 11:13:21;;;;;;;3.03;2.80;;;;;;;16.91;64.37;101043.84;4987719;28;102464;-62
2021/06/03 11:16:09;;;;;;;3.22;2.70;;;;;;;16.92;64.54;101044.69;4973632;28;102989;-62
2021/06/03 11:19:07;;;;;;;4.97;3.30;;;;;;;16.90;64.76;101047.72;4982753;28;104757;-62
2021/06/03 11:22:08;;;;;;;3.15;2.85;;;;;;;16.90;64.53;101053.22;4991538;28;102126;-62
2021/06/03 11:24:48;;;;;;;2.90;2.60;;;;;;;16.91;64.56;101054.84;4994090;28;102369;-62
2021/06/03 11:27:34;;;;;;;2.95;2.75;;;;;;;16.91;65.14;101049.34;4992824;28;102638;-62
2021/06/03 11:30:10;;;;;;;3.83;2.47;;;;;;;16.91;65.12;101057.59;4990980;28;103371;-62
2021/06/03 11:32:39;;;;;;;3.05;2.75;;;;;;;16.91;65.28;101048.53;4995858;28;102746;-63
2021/06/03 11:35:12;;;;;;;3.13;2.83;;;;;;;16.91;66.23;101060.34;4997938;28;102329;-62